createdAt,value
2018-03-25T00:00:03.859Z,1.80
2018-03-25T00:05:11.037Z,1.70
2018-03-25T00:10:14.270Z,1.70
2018-03-25T00:15:17.968Z,1.60
2018-03-25T00:20:21.258Z,1.60
2018-03-25T00:25:24.474Z,1.50
2018-03-25T00:30:27.726Z,1.50
2018-03-25T00:35:30.966Z,1.50
2018-03-25T00:40:36.331Z,1.50
2018-03-25T00:45:39.569Z,1.50
2018-03-25T00:50:43.204Z,1.10
2018-03-25T00:55:46.523Z,1.10
2018-03-25T01:00:50.450Z,1.00
2018-03-25T01:05:53.692Z,0.90
2018-03-25T01:10:56.992Z,0.90
2018-03-25T01:16:10.170Z,0.80
2018-03-25T01:21:13.977Z,0.80
2018-03-25T01:26:17.205Z,0.90
2018-03-25T01:31:20.428Z,0.90
2018-03-25T01:36:23.670Z,0.70
2018-03-25T01:41:26.900Z,0.80
2018-03-25T01:46:30.111Z,0.70
2018-03-25T01:51:33.315Z,0.80
2018-03-25T01:56:36.618Z,0.70
2018-03-25T02:01:39.890Z,0.70
2018-03-25T02:06:43.121Z,0.60
2018-03-25T02:11:46.330Z,0.50
2018-03-25T02:16:49.558Z,0.70
2018-03-25T02:21:53.183Z,0.60
2018-03-25T02:26:56.394Z,0.60
2018-03-25T02:31:59.618Z,0.60
2018-03-25T02:37:02.824Z,0.50
2018-03-25T02:42:06.079Z,0.50
2018-03-25T02:47:09.315Z,0.60
2018-03-25T02:52:12.520Z,0.60
2018-03-25T02:57:15.795Z,0.50
2018-03-25T03:02:19.042Z,0.60
2018-03-25T03:07:22.273Z,0.60
2018-03-25T03:12:25.619Z,0.70
2018-03-25T03:17:28.839Z,0.70
2018-03-25T03:22:32.498Z,0.40
2018-03-25T03:27:36.467Z,0.40
2018-03-25T03:32:40.105Z,0.50
2018-03-25T03:37:43.312Z,0.50
2018-03-25T03:42:46.526Z,0.30
2018-03-25T03:47:49.855Z,0.20
2018-03-25T03:52:53.086Z,0.20
2018-03-25T03:57:56.409Z,0.10
2018-03-25T04:02:59.717Z,0.20
2018-03-25T04:08:02.943Z,-0.10
2018-03-25T04:13:06.656Z,0.00
2018-03-25T04:18:10.050Z,0.00
2018-03-25T04:23:13.272Z,0.10
2018-03-25T04:28:16.901Z,0.10
2018-03-25T04:33:20.124Z,0.10
2018-03-25T04:38:23.384Z,-0.10
2018-03-25T04:43:26.710Z,-0.40
2018-03-25T04:48:30.327Z,-0.30
2018-03-25T04:53:35.006Z,-0.40
2018-03-25T04:58:38.227Z,-0.40
2018-03-25T05:03:41.468Z,-0.40
2018-03-25T05:08:45.090Z,-0.40
2018-03-25T05:13:48.896Z,-0.30
2018-03-25T05:18:52.691Z,-0.40
2018-03-25T05:23:55.910Z,-0.40
2018-03-25T05:28:59.164Z,-0.50
2018-03-25T05:34:02.459Z,-0.50
2018-03-25T05:39:06.089Z,-0.60
2018-03-25T05:44:09.303Z,-0.60
2018-03-25T05:49:12.538Z,-0.50
2018-03-25T05:54:15.777Z,-0.40
2018-03-25T05:59:19.407Z,-0.30
2018-03-25T06:04:22.684Z,-0.20
2018-03-25T06:09:25.909Z,-0.10
2018-03-25T06:14:29.542Z,0.30
2018-03-25T06:19:32.756Z,0.30
2018-03-25T06:24:36.330Z,0.30
2018-03-25T06:29:39.953Z,0.70
2018-03-25T06:34:43.574Z,0.90
2018-03-25T06:39:46.797Z,0.90
2018-03-25T06:44:50.068Z,0.80
2018-03-25T06:49:53.968Z,1.10
2018-03-25T06:54:57.192Z,1.10
2018-03-25T07:00:00.414Z,1.40
2018-03-25T07:05:04.066Z,2.20
2018-03-25T07:10:07.320Z,2.20
2018-03-25T07:15:10.587Z,2.60
2018-03-25T07:20:13.808Z,2.90
2018-03-25T07:25:17.035Z,3.30
2018-03-25T07:30:20.281Z,3.60
2018-03-25T07:35:23.521Z,4.00
2018-03-25T07:40:26.761Z,4.20
2018-03-25T07:45:30.434Z,4.70
2018-03-25T07:50:33.781Z,4.60
2018-03-25T07:55:37.022Z,4.60
2018-03-25T08:00:40.292Z,4.70
2018-03-25T08:05:43.569Z,5.00
2018-03-25T08:10:46.804Z,5.10
2018-03-25T08:15:50.092Z,5.30
2018-03-25T08:20:53.310Z,5.50
2018-03-25T08:25:56.533Z,5.90
2018-03-25T08:31:00.238Z,6.10
2018-03-25T08:36:03.482Z,6.10
2018-03-25T08:41:06.954Z,5.80
2018-03-25T08:46:10.261Z,6.10
2018-03-25T08:51:13.496Z,6.00
2018-03-25T08:56:16.799Z,6.30
2018-03-25T09:01:20.464Z,6.30
2018-03-25T09:06:23.676Z,6.30
2018-03-25T09:11:27.004Z,6.80
2018-03-25T09:16:30.325Z,6.90
2018-03-25T09:21:34.028Z,7.40
2018-03-25T09:26:37.648Z,7.40
2018-03-25T09:31:41.264Z,7.40
2018-03-25T09:36:44.989Z,7.50
2018-03-25T09:41:48.691Z,7.60
2018-03-25T09:46:52.313Z,7.40
2018-03-25T09:51:55.925Z,7.60
2018-03-25T09:56:59.685Z,7.90
2018-03-25T10:02:04.733Z,7.90
2018-03-25T10:07:08.022Z,8.30
2018-03-25T10:12:11.268Z,8.30
2018-03-25T10:17:14.476Z,8.90
2018-03-25T10:22:18.260Z,9.00
2018-03-25T10:27:21.499Z,9.10
2018-03-25T10:32:24.737Z,9.30
2018-03-25T10:37:28.362Z,9.90
2018-03-25T10:42:33.295Z,10.00
2018-03-25T10:47:36.935Z,10.50
2018-03-25T10:52:40.212Z,10.50
2018-03-25T10:57:43.864Z,10.50
2018-03-25T11:02:47.134Z,10.50
2018-03-25T11:13:00.442Z,11.60
2018-03-25T11:18:03.688Z,11.60
2018-03-25T11:23:06.950Z,12.80
2018-03-25T11:28:10.206Z,14.70
2018-03-25T11:33:13.531Z,15.90
2018-03-25T11:38:17.162Z,18.00
2018-03-25T11:43:20.890Z,18.20
2018-03-25T11:48:24.124Z,18.20
2018-03-25T11:53:27.686Z,18.90
2018-03-25T11:58:31.316Z,19.90
2018-03-25T12:03:34.739Z,19.90
2018-03-25T12:08:37.969Z,19.90
2018-03-25T12:13:41.237Z,19.60
2018-03-25T12:18:44.865Z,20.40
2018-03-25T12:23:48.099Z,20.40
2018-03-25T12:28:51.344Z,19.50
2018-03-25T12:33:54.989Z,20.50
2018-03-25T12:38:58.223Z,20.50
2018-03-25T12:44:01.574Z,19.80
2018-03-25T13:00:38.672Z,21.80
2018-03-25T13:05:44.298Z,21.90
2018-03-25T13:10:47.634Z,21.30
2018-03-25T13:15:51.339Z,21.50
2018-03-25T13:20:54.911Z,20.60
2018-03-25T13:25:58.250Z,16.80
2018-03-25T13:31:01.764Z,14.40
2018-03-25T13:36:05.487Z,13.50
2018-03-25T13:41:09.306Z,13.60
2018-03-25T13:46:12.617Z,13.60
2018-03-25T13:51:16.330Z,13.60
2018-03-25T13:56:20.012Z,13.70
2018-03-25T14:01:23.504Z,13.70
2018-03-25T14:06:26.735Z,13.50
2018-03-25T14:11:30.029Z,13.90
2018-03-25T14:16:35.412Z,15.20
2018-03-25T14:21:38.629Z,15.20
2018-03-25T14:26:42.344Z,15.00
2018-03-25T14:31:46.032Z,15.50
2018-03-25T14:36:49.269Z,15.50
2018-03-25T14:41:52.916Z,14.80
2018-03-25T14:46:56.171Z,14.80
2018-03-25T14:51:59.435Z,15.20
2018-03-25T14:57:02.674Z,15.50
2018-03-25T15:02:06.001Z,14.80
2018-03-25T15:07:09.618Z,14.00
2018-03-25T15:12:13.294Z,13.80
2018-03-25T15:17:16.528Z,13.70
2018-03-25T15:22:19.780Z,14.10
2018-03-25T15:27:23.100Z,13.90
2018-03-25T15:32:26.353Z,13.40
2018-03-25T15:37:29.598Z,13.40
2018-03-25T15:42:32.841Z,13.10
2018-03-25T15:47:36.087Z,13.00
2018-03-25T15:52:39.477Z,13.00
2018-03-25T15:57:42.736Z,13.10
2018-03-25T16:02:45.969Z,13.00
2018-03-25T16:07:49.224Z,12.80
2018-03-25T16:12:52.605Z,12.80
2018-03-25T16:17:55.829Z,12.80
2018-03-25T16:22:59.437Z,12.70
2018-03-25T16:28:03.045Z,12.20
2018-03-25T16:33:06.656Z,11.80
2018-03-25T16:38:10.374Z,11.60
2018-03-25T16:43:13.991Z,11.40
2018-03-25T16:48:17.607Z,11.20
2018-03-25T16:53:21.231Z,11.10
2018-03-25T16:58:24.932Z,10.90
2018-03-25T17:03:28.221Z,10.90
2018-03-25T17:08:32.465Z,10.80
2018-03-25T17:13:36.153Z,10.50
2018-03-25T17:18:39.443Z,10.50
2018-03-25T17:23:50.076Z,10.40
2018-03-25T17:28:53.884Z,10.10
2018-03-25T17:33:57.168Z,9.90
2018-03-25T17:39:03.572Z,9.60
2018-03-25T17:44:08.626Z,9.30
2018-03-25T17:49:14.803Z,9.00
2018-03-25T17:54:22.312Z,9.00
2018-03-25T17:59:31.888Z,8.80
2018-03-25T18:04:41.309Z,8.60
2018-03-25T18:09:48.699Z,8.60
2018-03-25T18:14:55.724Z,8.60
2018-03-25T18:19:59.665Z,8.40
2018-03-25T18:25:06.046Z,8.40
2018-03-25T18:30:10.497Z,8.40
2018-03-25T18:35:18.960Z,8.30
2018-03-25T18:40:24.987Z,8.20
2018-03-25T18:45:30.964Z,8.20
2018-03-25T18:50:37.936Z,8.00
2018-03-25T18:55:42.999Z,7.90
2018-03-25T19:00:47.210Z,7.90
2018-03-25T19:05:53.290Z,7.90
2018-03-25T19:10:59.206Z,7.70
2018-03-25T19:16:05.025Z,7.70
2018-03-25T19:21:12.335Z,7.70
2018-03-25T19:26:18.377Z,7.90
2018-03-25T19:31:27.616Z,8.40
2018-03-25T19:36:36.852Z,8.60
2018-03-25T19:41:41.476Z,8.60
2018-03-25T19:46:51.471Z,8.50
2018-03-25T19:51:56.895Z,8.40
2018-03-25T19:57:02.537Z,8.30
2018-03-25T20:02:07.619Z,8.20
2018-03-25T20:07:11.895Z,8.30
2018-03-25T20:12:18.949Z,8.20
2018-03-25T20:17:23.554Z,8.20
2018-03-25T20:22:28.815Z,8.10
2018-03-25T20:27:34.394Z,8.10
2018-03-25T20:32:41.856Z,7.80
2018-03-25T20:37:49.548Z,7.80
2018-03-25T20:42:55.960Z,7.90
2018-03-25T20:48:01.970Z,7.70
2018-03-25T20:53:08.504Z,7.60
2018-03-25T20:58:16.819Z,7.70
2018-03-25T21:03:22.617Z,7.70
2018-03-25T21:08:27.964Z,7.60
2018-03-25T21:13:41.405Z,7.30
2018-03-25T21:18:46.432Z,7.30
2018-03-25T21:23:50.981Z,7.20
2018-03-25T21:28:57.648Z,7.20
2018-03-25T21:34:02.040Z,7.10
2018-03-25T21:39:07.558Z,7.00
2018-03-25T21:44:13.699Z,7.00
2018-03-25T21:49:19.553Z,7.10
2018-03-25T21:54:26.684Z,7.40
2018-03-25T21:59:31.028Z,7.50
2018-03-25T22:04:40.496Z,7.70
2018-03-25T22:09:44.839Z,7.60
2018-03-25T22:14:48.223Z,7.60
2018-03-25T22:19:52.343Z,7.30
2018-03-25T22:24:56.102Z,7.20
2018-03-25T22:29:59.371Z,7.20
2018-03-25T22:35:03.076Z,7.20
2018-03-25T22:40:12.283Z,7.10
2018-03-25T22:45:17.252Z,7.10
2018-03-25T22:50:28.025Z,6.90
2018-03-25T22:55:32.321Z,6.90
2018-03-25T23:00:35.601Z,6.80
2018-03-25T23:05:40.130Z,6.80
2018-03-25T23:10:43.391Z,6.70
2018-03-25T23:15:46.646Z,6.80
2018-03-25T23:20:49.872Z,6.90
2018-03-25T23:25:53.103Z,7.10
2018-03-25T23:30:56.765Z,7.20
2018-03-25T23:36:00.019Z,7.30
2018-03-25T23:41:03.327Z,7.20
2018-03-25T23:46:06.632Z,7.20
2018-03-25T23:51:09.851Z,7.10
2018-03-25T23:56:13.629Z,6.80
